sensor_id;sensor_type;location;lat;lon;timestamp;P1;durP1;ratioP1;P2;durP2;ratioP2
60502;SDS011;51448;51.660;5.824;2022-07-19T00:01:10;13.10;;;6.88;;
60502;SDS011;51448;51.660;5.824;2022-07-19T00:03:38;12.88;;;6.85;;
60502;SDS011;51448;51.660;5.824;2022-07-19T00:06:06;16.13;;;7.38;;
60502;SDS011;51448;51.660;5.824;2022-07-19T00:08:33;12.68;;;6.53;;
60502;SDS011;51448;51.660;5.824;2022-07-19T00:11:00;16.38;;;7.43;;
60502;SDS011;51448;51.660;5.824;2022-07-19T00:13:28;14.82;;;7.25;;
60502;SDS011;51448;51.660;5.824;2022-07-19T00:15:56;13.00;;;8.27;;
60502;SDS011;51448;51.660;5.824;2022-07-19T00:18:23;13.63;;;7.30;;
60502;SDS011;51448;51.660;5.824;2022-07-19T00:20:51;15.52;;;7.47;;
60502;SDS011;51448;51.660;5.824;2022-07-19T00:23:18;14.52;;;7.70;;
60502;SDS011;51448;51.660;5.824;2022-07-19T00:25:46;11.82;;;7.55;;
60502;SDS011;51448;51.660;5.824;2022-07-19T00:28:14;14.20;;;7.72;;
60502;SDS011;51448;51.660;5.824;2022-07-19T00:30:41;15.27;;;7.78;;
60502;SDS011;51448;51.660;5.824;2022-07-19T00:33:09;11.20;;;6.93;;
60502;SDS011;51448;51.660;5.824;2022-07-19T00:35:37;16.08;;;9.10;;
60502;SDS011;51448;51.660;5.824;2022-07-19T00:38:06;18.77;;;8.85;;
60502;SDS011;51448;51.660;5.824;2022-07-19T00:40:40;12.90;;;8.45;;
60502;SDS011;51448;51.660;5.824;2022-07-19T00:43:09;12.40;;;8.20;;
60502;SDS011;51448;51.660;5.824;2022-07-19T00:45:38;15.25;;;8.20;;
60502;SDS011;51448;51.660;5.824;2022-07-19T00:48:06;13.40;;;7.90;;
60502;SDS011;51448;51.660;5.824;2022-07-19T00:50:34;16.63;;;8.27;;
60502;SDS011;51448;51.660;5.824;2022-07-19T00:53:02;17.83;;;7.93;;
60502;SDS011;51448;51.660;5.824;2022-07-19T00:55:33;17.77;;;8.43;;
60502;SDS011;51448;51.660;5.824;2022-07-19T00:58:02;15.07;;;8.25;;
60502;SDS011;51448;51.660;5.824;2022-07-19T01:00:31;14.98;;;8.63;;
60502;SDS011;51448;51.660;5.824;2022-07-19T01:03:01;16.17;;;8.63;;
60502;SDS011;51448;51.660;5.824;2022-07-19T01:05:29;12.90;;;8.43;;
60502;SDS011;51448;51.660;5.824;2022-07-19T01:07:56;16.38;;;8.15;;
60502;SDS011;51448;51.660;5.824;2022-07-19T01:10:24;15.35;;;7.85;;
60502;SDS011;51448;51.660;5.824;2022-07-19T01:12:53;17.08;;;8.77;;
60502;SDS011;51448;51.660;5.824;2022-07-19T01:15:23;16.92;;;7.70;;
60502;SDS011;51448;51.660;5.824;2022-07-19T01:17:54;11.05;;;7.53;;
60502;SDS011;51448;51.660;5.824;2022-07-19T01:20:23;12.65;;;8.25;;
60502;SDS011;51448;51.660;5.824;2022-07-19T01:22:57;13.75;;;8.10;;
60502;SDS011;51448;51.660;5.824;2022-07-19T01:25:27;16.27;;;8.05;;
60502;SDS011;51448;51.660;5.824;2022-07-19T01:27:58;13.25;;;8.02;;
60502;SDS011;51448;51.660;5.824;2022-07-19T01:30:26;12.70;;;8.30;;
60502;SDS011;51448;51.660;5.824;2022-07-19T01:32:55;18.38;;;7.90;;
60502;SDS011;51448;51.660;5.824;2022-07-19T01:35:24;11.90;;;7.75;;
60502;SDS011;51448;51.660;5.824;2022-07-19T01:37:52;18.38;;;7.75;;
60502;SDS011;51448;51.660;5.824;2022-07-19T01:40:20;13.70;;;7.40;;
60502;SDS011;51448;51.660;5.824;2022-07-19T01:42:48;11.23;;;7.80;;
60502;SDS011;51448;51.660;5.824;2022-07-19T01:45:17;14.57;;;7.82;;
60502;SDS011;51448;51.660;5.824;2022-07-19T01:47:45;12.48;;;7.93;;
60502;SDS011;51448;51.660;5.824;2022-07-19T01:50:15;17.10;;;7.72;;
60502;SDS011;51448;51.660;5.824;2022-07-19T01:52:45;17.37;;;8.83;;
60502;SDS011;51448;51.660;5.824;2022-07-19T01:55:18;15.77;;;8.02;;
60502;SDS011;51448;51.660;5.824;2022-07-19T01:57:47;14.65;;;8.60;;
60502;SDS011;51448;51.660;5.824;2022-07-19T02:00:15;17.48;;;8.27;;
60502;SDS011;51448;51.660;5.824;2022-07-19T02:02:45;10.85;;;8.20;;
60502;SDS011;51448;51.660;5.824;2022-07-19T02:05:13;14.50;;;8.02;;
60502;SDS011;51448;51.660;5.824;2022-07-19T02:07:45;12.25;;;8.10;;
60502;SDS011;51448;51.660;5.824;2022-07-19T02:10:13;14.57;;;8.07;;
60502;SDS011;51448;51.660;5.824;2022-07-19T02:12:41;13.77;;;8.30;;
60502;SDS011;51448;51.660;5.824;2022-07-19T02:15:08;9.95;;;7.65;;
60502;SDS011;51448;51.660;5.824;2022-07-19T02:17:36;13.13;;;8.02;;
60502;SDS011;51448;51.660;5.824;2022-07-19T02:20:05;15.40;;;7.38;;
60502;SDS011;51448;51.660;5.824;2022-07-19T02:22:33;12.32;;;8.10;;
60502;SDS011;51448;51.660;5.824;2022-07-19T02:25:01;14.07;;;8.10;;
60502;SDS011;51448;51.660;5.824;2022-07-19T02:27:29;13.05;;;7.95;;
60502;SDS011;51448;51.660;5.824;2022-07-19T02:29:56;11.57;;;7.90;;
60502;SDS011;51448;51.660;5.824;2022-07-19T02:32:23;13.35;;;8.07;;
60502;SDS011;51448;51.660;5.824;2022-07-19T02:34:51;10.75;;;7.85;;
60502;SDS011;51448;51.660;5.824;2022-07-19T02:37:19;13.88;;;8.68;;
60502;SDS011;51448;51.660;5.824;2022-07-19T02:39:46;13.88;;;7.25;;
60502;SDS011;51448;51.660;5.824;2022-07-19T02:42:14;11.13;;;7.28;;
60502;SDS011;51448;51.660;5.824;2022-07-19T02:44:41;12.45;;;7.90;;
60502;SDS011;51448;51.660;5.824;2022-07-19T02:47:09;15.63;;;7.90;;
60502;SDS011;51448;51.660;5.824;2022-07-19T02:49:36;12.07;;;7.97;;
60502;SDS011;51448;51.660;5.824;2022-07-19T02:52:04;11.68;;;7.57;;
60502;SDS011;51448;51.660;5.824;2022-07-19T02:54:31;11.40;;;7.70;;
60502;SDS011;51448;51.660;5.824;2022-07-19T02:56:59;13.20;;;8.10;;
60502;SDS011;51448;51.660;5.824;2022-07-19T02:59:26;16.77;;;7.45;;
60502;SDS011;51448;51.660;5.824;2022-07-19T03:01:54;13.32;;;8.07;;
60502;SDS011;51448;51.660;5.824;2022-07-19T03:04:21;12.63;;;7.18;;
60502;SDS011;51448;51.660;5.824;2022-07-19T03:06:49;14.32;;;7.97;;
60502;SDS011;51448;51.660;5.824;2022-07-19T03:09:17;10.77;;;7.70;;
60502;SDS011;51448;51.660;5.824;2022-07-19T03:11:44;31.50;;;8.60;;
60502;SDS011;51448;51.660;5.824;2022-07-19T03:14:12;23.60;;;8.07;;
60502;SDS011;51448;51.660;5.824;2022-07-19T03:16:39;13.82;;;8.05;;
60502;SDS011;51448;51.660;5.824;2022-07-19T03:19:07;14.77;;;7.75;;
60502;SDS011;51448;51.660;5.824;2022-07-19T03:21:35;13.60;;;7.55;;
60502;SDS011;51448;51.660;5.824;2022-07-19T03:24:04;12.18;;;7.25;;
60502;SDS011;51448;51.660;5.824;2022-07-19T03:26:31;12.85;;;8.93;;
60502;SDS011;51448;51.660;5.824;2022-07-19T03:28:59;10.27;;;7.80;;
60502;SDS011;51448;51.660;5.824;2022-07-19T03:31:26;12.95;;;8.02;;
60502;SDS011;51448;51.660;5.824;2022-07-19T03:33:54;13.18;;;8.10;;
60502;SDS011;51448;51.660;5.824;2022-07-19T03:36:21;14.20;;;7.50;;
60502;SDS011;51448;51.660;5.824;2022-07-19T03:38:49;16.00;;;7.97;;
60502;SDS011;51448;51.660;5.824;2022-07-19T03:41:16;11.25;;;7.40;;
60502;SDS011;51448;51.660;5.824;2022-07-19T03:43:43;9.88;;;7.50;;
60502;SDS011;51448;51.660;5.824;2022-07-19T03:46:11;12.55;;;7.60;;
60502;SDS011;51448;51.660;5.824;2022-07-19T03:48:38;11.68;;;8.10;;
60502;SDS011;51448;51.660;5.824;2022-07-19T03:51:06;12.88;;;8.25;;
60502;SDS011;51448;51.660;5.824;2022-07-19T03:53:34;18.48;;;8.20;;
60502;SDS011;51448;51.660;5.824;2022-07-19T03:56:01;15.32;;;8.27;;
60502;SDS011;51448;51.660;5.824;2022-07-19T03:58:29;18.25;;;8.38;;
60502;SDS011;51448;51.660;5.824;2022-07-19T04:00:57;21.08;;;8.40;;
60502;SDS011;51448;51.660;5.824;2022-07-19T04:03:24;24.50;;;9.25;;
60502;SDS011;51448;51.660;5.824;2022-07-19T04:05:52;24.83;;;10.48;;
60502;SDS011;51448;51.660;5.824;2022-07-19T04:08:20;29.23;;;10.27;;
60502;SDS011;51448;51.660;5.824;2022-07-19T04:10:47;29.13;;;9.18;;
60502;SDS011;51448;51.660;5.824;2022-07-19T04:13:15;22.10;;;9.10;;
60502;SDS011;51448;51.660;5.824;2022-07-19T04:15:42;16.77;;;9.02;;
60502;SDS011;51448;51.660;5.824;2022-07-19T04:18:13;20.90;;;9.25;;
60502;SDS011;51448;51.660;5.824;2022-07-19T04:20:40;18.95;;;9.13;;
60502;SDS011;51448;51.660;5.824;2022-07-19T04:23:08;18.92;;;8.85;;
60502;SDS011;51448;51.660;5.824;2022-07-19T04:25:36;18.50;;;9.18;;
60502;SDS011;51448;51.660;5.824;2022-07-19T04:28:03;20.90;;;9.43;;
60502;SDS011;51448;51.660;5.824;2022-07-19T04:30:31;13.63;;;8.43;;
60502;SDS011;51448;51.660;5.824;2022-07-19T04:32:58;20.88;;;9.30;;
60502;SDS011;51448;51.660;5.824;2022-07-19T04:35:27;20.48;;;10.38;;
60502;SDS011;51448;51.660;5.824;2022-07-19T04:37:54;14.95;;;10.23;;
60502;SDS011;51448;51.660;5.824;2022-07-19T04:40:22;21.20;;;10.10;;
60502;SDS011;51448;51.660;5.824;2022-07-19T04:42:50;15.43;;;9.68;;
60502;SDS011;51448;51.660;5.824;2022-07-19T04:45:17;19.92;;;10.15;;
60502;SDS011;51448;51.660;5.824;2022-07-19T04:47:45;15.32;;;8.98;;
60502;SDS011;51448;51.660;5.824;2022-07-19T04:50:12;12.90;;;8.93;;
60502;SDS011;51448;51.660;5.824;2022-07-19T04:52:39;15.68;;;8.98;;
60502;SDS011;51448;51.660;5.824;2022-07-19T04:55:07;14.52;;;8.90;;
60502;SDS011;51448;51.660;5.824;2022-07-19T04:57:35;11.93;;;8.80;;
60502;SDS011;51448;51.660;5.824;2022-07-19T05:00:03;11.55;;;8.93;;
60502;SDS011;51448;51.660;5.824;2022-07-19T05:02:36;13.80;;;8.13;;
60502;SDS011;51448;51.660;5.824;2022-07-19T05:05:05;16.83;;;8.90;;
60502;SDS011;51448;51.660;5.824;2022-07-19T05:07:33;13.50;;;8.45;;
60502;SDS011;51448;51.660;5.824;2022-07-19T05:10:22;16.10;;;9.27;;
60502;SDS011;51448;51.660;5.824;2022-07-19T05:13:29;17.50;;;8.25;;
60502;SDS011;51448;51.660;5.824;2022-07-19T05:16:29;17.80;;;8.98;;
60502;SDS011;51448;51.660;5.824;2022-07-19T05:20:07;12.55;;;8.82;;
60502;SDS011;51448;51.660;5.824;2022-07-19T05:22:35;19.48;;;9.07;;
60502;SDS011;51448;51.660;5.824;2022-07-19T05:25:03;13.73;;;8.40;;
60502;SDS011;51448;51.660;5.824;2022-07-19T05:27:31;15.27;;;8.48;;
60502;SDS011;51448;51.660;5.824;2022-07-19T05:29:59;13.52;;;8.43;;
60502;SDS011;51448;51.660;5.824;2022-07-19T05:32:26;16.25;;;9.00;;
60502;SDS011;51448;51.660;5.824;2022-07-19T05:34:54;13.05;;;8.48;;
60502;SDS011;51448;51.660;5.824;2022-07-19T05:37:21;15.43;;;8.50;;
60502;SDS011;51448;51.660;5.824;2022-07-19T05:39:49;16.60;;;8.65;;
60502;SDS011;51448;51.660;5.824;2022-07-19T05:42:16;17.02;;;9.23;;
60502;SDS011;51448;51.660;5.824;2022-07-19T05:44:44;13.10;;;9.10;;
60502;SDS011;51448;51.660;5.824;2022-07-19T05:47:12;17.90;;;8.57;;
60502;SDS011;51448;51.660;5.824;2022-07-19T05:49:42;14.75;;;9.57;;
60502;SDS011;51448;51.660;5.824;2022-07-19T05:52:09;14.32;;;9.18;;
60502;SDS011;51448;51.660;5.824;2022-07-19T05:54:37;18.80;;;9.25;;
60502;SDS011;51448;51.660;5.824;2022-07-19T05:57:04;23.02;;;9.63;;
60502;SDS011;51448;51.660;5.824;2022-07-19T05:59:32;14.15;;;9.38;;
60502;SDS011;51448;51.660;5.824;2022-07-19T06:02:02;16.25;;;9.23;;
60502;SDS011;51448;51.660;5.824;2022-07-19T06:04:30;15.45;;;9.82;;
60502;SDS011;51448;51.660;5.824;2022-07-19T06:06:58;21.83;;;9.45;;
60502;SDS011;51448;51.660;5.824;2022-07-19T06:09:25;59.33;;;12.43;;
60502;SDS011;51448;51.660;5.824;2022-07-19T06:11:53;47.45;;;11.70;;
60502;SDS011;51448;51.660;5.824;2022-07-19T06:14:20;18.00;;;9.18;;
60502;SDS011;51448;51.660;5.824;2022-07-19T06:16:48;16.45;;;9.40;;
60502;SDS011;51448;51.660;5.824;2022-07-19T06:19:16;15.60;;;9.02;;
60502;SDS011;51448;51.660;5.824;2022-07-19T06:21:43;15.25;;;9.80;;
60502;SDS011;51448;51.660;5.824;2022-07-19T06:24:10;14.52;;;9.10;;
60502;SDS011;51448;51.660;5.824;2022-07-19T06:26:38;12.15;;;9.13;;
60502;SDS011;51448;51.660;5.824;2022-07-19T06:29:05;14.40;;;9.52;;
60502;SDS011;51448;51.660;5.824;2022-07-19T06:31:33;18.45;;;9.35;;
60502;SDS011;51448;51.660;5.824;2022-07-19T06:34:01;16.55;;;10.50;;
60502;SDS011;51448;51.660;5.824;2022-07-19T06:36:32;16.02;;;9.65;;
60502;SDS011;51448;51.660;5.824;2022-07-19T06:39:00;15.20;;;9.50;;
60502;SDS011;51448;51.660;5.824;2022-07-19T06:41:27;14.38;;;9.88;;
60502;SDS011;51448;51.660;5.824;2022-07-19T06:43:57;15.77;;;10.30;;
60502;SDS011;51448;51.660;5.824;2022-07-19T06:46:24;16.23;;;10.15;;
60502;SDS011;51448;51.660;5.824;2022-07-19T06:48:52;24.33;;;11.07;;
60502;SDS011;51448;51.660;5.824;2022-07-19T06:51:19;15.43;;;11.45;;
60502;SDS011;51448;51.660;5.824;2022-07-19T06:53:48;18.85;;;11.70;;
60502;SDS011;51448;51.660;5.824;2022-07-19T06:56:15;18.98;;;12.30;;
60502;SDS011;51448;51.660;5.824;2022-07-19T06:58:43;17.38;;;12.35;;
60502;SDS011;51448;51.660;5.824;2022-07-19T07:01:10;14.73;;;11.85;;
60502;SDS011;51448;51.660;5.824;2022-07-19T07:03:38;14.63;;;11.90;;
60502;SDS011;51448;51.660;5.824;2022-07-19T07:06:06;20.05;;;12.25;;
60502;SDS011;51448;51.660;5.824;2022-07-19T07:08:33;17.55;;;11.85;;
60502;SDS011;51448;51.660;5.824;2022-07-19T07:11:01;17.52;;;11.52;;
60502;SDS011;51448;51.660;5.824;2022-07-19T07:13:29;20.55;;;10.30;;
60502;SDS011;51448;51.660;5.824;2022-07-19T07:15:56;14.93;;;10.32;;
60502;SDS011;51448;51.660;5.824;2022-07-19T07:18:24;17.33;;;9.75;;
60502;SDS011;51448;51.660;5.824;2022-07-19T07:20:51;15.82;;;9.68;;
60502;SDS011;51448;51.660;5.824;2022-07-19T07:23:19;14.60;;;9.75;;
60502;SDS011;51448;51.660;5.824;2022-07-19T07:25:46;16.63;;;8.30;;
60502;SDS011;51448;51.660;5.824;2022-07-19T07:28:14;12.77;;;7.00;;
60502;SDS011;51448;51.660;5.824;2022-07-19T07:30:41;14.55;;;7.10;;
60502;SDS011;51448;51.660;5.824;2022-07-19T07:33:09;17.42;;;7.85;;
60502;SDS011;51448;51.660;5.824;2022-07-19T07:35:36;14.32;;;8.10;;
60502;SDS011;51448;51.660;5.824;2022-07-19T07:38:04;13.70;;;6.65;;
60502;SDS011;51448;51.660;5.824;2022-07-19T07:40:31;13.25;;;6.30;;
60502;SDS011;51448;51.660;5.824;2022-07-19T07:42:59;15.57;;;6.95;;
60502;SDS011;51448;51.660;5.824;2022-07-19T07:45:28;11.63;;;6.20;;
60502;SDS011;51448;51.660;5.824;2022-07-19T07:47:57;14.68;;;5.65;;
60502;SDS011;51448;51.660;5.824;2022-07-19T07:50:24;14.10;;;5.95;;
60502;SDS011;51448;51.660;5.824;2022-07-19T07:52:52;13.70;;;6.20;;
60502;SDS011;51448;51.660;5.824;2022-07-19T07:55:19;13.02;;;5.45;;
60502;SDS011;51448;51.660;5.824;2022-07-19T07:57:54;15.80;;;5.75;;
60502;SDS011;51448;51.660;5.824;2022-07-19T08:00:22;14.27;;;5.55;;
60502;SDS011;51448;51.660;5.824;2022-07-19T08:02:49;13.45;;;5.75;;
60502;SDS011;51448;51.660;5.824;2022-07-19T08:05:19;11.15;;;5.47;;
60502;SDS011;51448;51.660;5.824;2022-07-19T08:07:51;9.80;;;5.00;;
60502;SDS011;51448;51.660;5.824;2022-07-19T08:10:24;10.55;;;5.13;;
60502;SDS011;51448;51.660;5.824;2022-07-19T08:12:53;14.82;;;6.45;;
60502;SDS011;51448;51.660;5.824;2022-07-19T08:15:21;15.02;;;5.55;;
60502;SDS011;51448;51.660;5.824;2022-07-19T08:17:49;12.60;;;6.00;;
60502;SDS011;51448;51.660;5.824;2022-07-19T08:20:16;11.13;;;5.25;;
60502;SDS011;51448;51.660;5.824;2022-07-19T08:22:44;15.57;;;5.50;;
60502;SDS011;51448;51.660;5.824;2022-07-19T08:25:12;16.58;;;5.53;;
60502;SDS011;51448;51.660;5.824;2022-07-19T08:27:45;9.25;;;5.45;;
60502;SDS011;51448;51.660;5.824;2022-07-19T08:30:13;17.33;;;5.75;;
60502;SDS011;51448;51.660;5.824;2022-07-19T08:32:42;16.60;;;5.68;;
60502;SDS011;51448;51.660;5.824;2022-07-19T08:35:10;12.02;;;5.40;;
60502;SDS011;51448;51.660;5.824;2022-07-19T08:37:38;12.25;;;5.10;;
60502;SDS011;51448;51.660;5.824;2022-07-19T08:40:06;16.75;;;5.55;;
60502;SDS011;51448;51.660;5.824;2022-07-19T08:42:34;12.35;;;5.32;;
60502;SDS011;51448;51.660;5.824;2022-07-19T08:45:04;13.93;;;5.10;;
60502;SDS011;51448;51.660;5.824;2022-07-19T08:47:36;11.23;;;5.07;;
60502;SDS011;51448;51.660;5.824;2022-07-19T08:50:06;12.30;;;4.80;;
60502;SDS011;51448;51.660;5.824;2022-07-19T08:55:05;10.60;;;4.60;;
60502;SDS011;51448;51.660;5.824;2022-07-19T08:57:44;15.20;;;5.32;;
60502;SDS011;51448;51.660;5.824;2022-07-19T09:00:30;13.88;;;4.38;;
60502;SDS011;51448;51.660;5.824;2022-07-19T09:03:01;15.23;;;4.50;;
60502;SDS011;51448;51.660;5.824;2022-07-19T09:05:32;13.27;;;4.22;;
60502;SDS011;51448;51.660;5.824;2022-07-19T09:10:40;16.08;;;4.60;;
60502;SDS011;51448;51.660;5.824;2022-07-19T09:13:12;15.20;;;4.57;;
60502;SDS011;51448;51.660;5.824;2022-07-19T09:15:50;14.25;;;4.43;;
60502;SDS011;51448;51.660;5.824;2022-07-19T09:18:26;11.55;;;4.00;;
60502;SDS011;51448;51.660;5.824;2022-07-19T09:21:04;18.05;;;4.65;;
60502;SDS011;51448;51.660;5.824;2022-07-19T09:23:35;11.93;;;4.13;;
60502;SDS011;51448;51.660;5.824;2022-07-19T09:26:07;11.32;;;4.25;;
60502;SDS011;51448;51.660;5.824;2022-07-19T09:28:35;12.82;;;5.90;;
60502;SDS011;51448;51.660;5.824;2022-07-19T09:31:06;8.75;;;4.45;;
60502;SDS011;51448;51.660;5.824;2022-07-19T09:33:36;14.07;;;4.85;;
60502;SDS011;51448;51.660;5.824;2022-07-19T09:36:10;13.55;;;4.85;;
60502;SDS011;51448;51.660;5.824;2022-07-19T09:38:40;13.93;;;4.32;;
60502;SDS011;51448;51.660;5.824;2022-07-19T09:41:15;10.82;;;4.00;;
60502;SDS011;51448;51.660;5.824;2022-07-19T09:46:32;10.77;;;3.93;;
60502;SDS011;51448;51.660;5.824;2022-07-19T09:49:13;10.10;;;3.78;;
60502;SDS011;51448;51.660;5.824;2022-07-19T09:51:45;10.98;;;3.83;;
60502;SDS011;51448;51.660;5.824;2022-07-19T09:54:19;9.07;;;3.85;;
60502;SDS011;51448;51.660;5.824;2022-07-19T09:56:50;11.55;;;3.55;;
60502;SDS011;51448;51.660;5.824;2022-07-19T09:59:23;11.02;;;3.67;;
60502;SDS011;51448;51.660;5.824;2022-07-19T10:01:52;12.80;;;4.07;;
60502;SDS011;51448;51.660;5.824;2022-07-19T10:04:23;11.95;;;3.22;;
60502;SDS011;51448;51.660;5.824;2022-07-19T10:06:53;10.30;;;3.90;;
60502;SDS011;51448;51.660;5.824;2022-07-19T10:09:24;12.93;;;3.60;;
60502;SDS011;51448;51.660;5.824;2022-07-19T10:11:56;8.43;;;3.30;;
60502;SDS011;51448;51.660;5.824;2022-07-19T10:14:24;12.35;;;3.42;;
60502;SDS011;51448;51.660;5.824;2022-07-19T10:20:01;8.85;;;3.22;;
60502;SDS011;51448;51.660;5.824;2022-07-19T10:22:30;10.45;;;3.70;;
60502;SDS011;51448;51.660;5.824;2022-07-19T10:25:12;12.15;;;3.15;;
60502;SDS011;51448;51.660;5.824;2022-07-19T10:27:52;16.58;;;3.40;;
60502;SDS011;51448;51.660;5.824;2022-07-19T10:30:37;8.10;;;3.20;;
60502;SDS011;51448;51.660;5.824;2022-07-19T10:33:32;9.13;;;3.03;;
60502;SDS011;51448;51.660;5.824;2022-07-19T10:36:30;9.18;;;3.28;;
60502;SDS011;51448;51.660;5.824;2022-07-19T10:48:10;9.27;;;3.13;;
60502;SDS011;51448;51.660;5.824;2022-07-19T10:50:16;6.18;;;2.90;;
60502;SDS011;51448;51.660;5.824;2022-07-19T10:52:51;10.23;;;3.35;;
60502;SDS011;51448;51.660;5.824;2022-07-19T10:55:25;8.27;;;2.90;;
60502;SDS011;51448;51.660;5.824;2022-07-19T10:58:13;11.63;;;3.05;;
60502;SDS011;51448;51.660;5.824;2022-07-19T11:00:45;10.70;;;3.25;;
60502;SDS011;51448;51.660;5.824;2022-07-19T11:05:53;9.57;;;3.50;;
60502;SDS011;51448;51.660;5.824;2022-07-19T11:08:34;11.57;;;3.20;;
60502;SDS011;51448;51.660;5.824;2022-07-19T11:11:16;11.10;;;2.92;;
60502;SDS011;51448;51.660;5.824;2022-07-19T11:13:46;9.75;;;3.17;;
60502;SDS011;51448;51.660;5.824;2022-07-19T11:16:21;8.88;;;3.05;;
60502;SDS011;51448;51.660;5.824;2022-07-19T11:19:01;8.80;;;2.72;;
60502;SDS011;51448;51.660;5.824;2022-07-19T11:21:35;7.90;;;2.92;;
60502;SDS011;51448;51.660;5.824;2022-07-19T11:24:06;12.52;;;3.28;;
60502;SDS011;51448;51.660;5.824;2022-07-19T11:26:36;8.60;;;2.92;;
60502;SDS011;51448;51.660;5.824;2022-07-19T11:29:13;9.02;;;2.67;;
60502;SDS011;51448;51.660;5.824;2022-07-19T11:31:47;6.95;;;2.30;;
60502;SDS011;51448;51.660;5.824;2022-07-19T11:34:15;7.07;;;2.97;;
60502;SDS011;51448;51.660;5.824;2022-07-19T11:36:58;10.07;;;2.65;;
60502;SDS011;51448;51.660;5.824;2022-07-19T11:39:25;5.72;;;2.10;;
60502;SDS011;51448;51.660;5.824;2022-07-19T11:42:13;10.35;;;2.70;;
60502;SDS011;51448;51.660;5.824;2022-07-19T11:44:41;10.55;;;2.42;;
60502;SDS011;51448;51.660;5.824;2022-07-19T11:47:11;9.60;;;2.22;;
60502;SDS011;51448;51.660;5.824;2022-07-19T11:49:39;9.50;;;2.47;;
60502;SDS011;51448;51.660;5.824;2022-07-19T11:52:07;7.75;;;2.38;;
60502;SDS011;51448;51.660;5.824;2022-07-19T11:54:35;8.23;;;2.15;;
60502;SDS011;51448;51.660;5.824;2022-07-19T11:57:21;8.77;;;2.75;;
60502;SDS011;51448;51.660;5.824;2022-07-19T11:59:56;6.70;;;2.50;;
60502;SDS011;51448;51.660;5.824;2022-07-19T12:02:24;8.63;;;2.90;;
60502;SDS011;51448;51.660;5.824;2022-07-19T12:04:52;7.20;;;2.67;;
60502;SDS011;51448;51.660;5.824;2022-07-19T12:07:22;7.25;;;2.30;;
60502;SDS011;51448;51.660;5.824;2022-07-19T12:12:23;7.78;;;2.38;;
60502;SDS011;51448;51.660;5.824;2022-07-19T12:14:51;8.30;;;2.28;;
60502;SDS011;51448;51.660;5.824;2022-07-19T12:27:23;5.88;;;2.08;;
60502;SDS011;51448;51.660;5.824;2022-07-19T12:30:25;7.07;;;2.60;;
60502;SDS011;51448;51.660;5.824;2022-07-19T12:33:44;8.25;;;2.20;;
60502;SDS011;51448;51.660;5.824;2022-07-19T12:37:46;11.57;;;2.50;;
60502;SDS011;51448;51.660;5.824;2022-07-19T12:50:49;9.27;;;2.70;;
60502;SDS011;51448;51.660;5.824;2022-07-19T12:54:29;9.60;;;2.63;;
60502;SDS011;51448;51.660;5.824;2022-07-19T12:57:58;7.60;;;2.78;;
60502;SDS011;51448;51.660;5.824;2022-07-19T13:01:47;6.82;;;2.30;;
60502;SDS011;51448;51.660;5.824;2022-07-19T13:05:37;8.32;;;2.25;;
60502;SDS011;51448;51.660;5.824;2022-07-19T13:09:56;6.55;;;2.33;;
60502;SDS011;51448;51.660;5.824;2022-07-19T13:13:02;7.80;;;1.90;;
60502;SDS011;51448;51.660;5.824;2022-07-19T13:16:47;9.27;;;2.38;;
60502;SDS011;51448;51.660;5.824;2022-07-19T13:19:21;6.85;;;1.90;;
60502;SDS011;51448;51.660;5.824;2022-07-19T13:22:43;5.68;;;2.10;;
60502;SDS011;51448;51.660;5.824;2022-07-19T13:26:42;6.93;;;2.22;;
60502;SDS011;51448;51.660;5.824;2022-07-19T13:39:15;8.30;;;1.90;;
60502;SDS011;51448;51.660;5.824;2022-07-19T13:41:44;13.57;;;2.47;;
60502;SDS011;51448;51.660;5.824;2022-07-19T13:44:17;7.88;;;2.13;;
60502;SDS011;51448;51.660;5.824;2022-07-19T13:46:45;7.07;;;2.65;;
60502;SDS011;51448;51.660;5.824;2022-07-19T13:49:13;6.72;;;2.50;;
60502;SDS011;51448;51.660;5.824;2022-07-19T13:51:41;6.88;;;2.15;;
60502;SDS011;51448;51.660;5.824;2022-07-19T13:54:09;5.78;;;2.42;;
60502;SDS011;51448;51.660;5.824;2022-07-19T13:56:37;9.48;;;2.35;;
60502;SDS011;51448;51.660;5.824;2022-07-19T13:59:05;8.63;;;2.35;;
60502;SDS011;51448;51.660;5.824;2022-07-19T14:01:32;7.20;;;2.42;;
60502;SDS011;51448;51.660;5.824;2022-07-19T14:04:15;8.52;;;2.58;;
60502;SDS011;51448;51.660;5.824;2022-07-19T14:06:49;6.88;;;2.67;;
60502;SDS011;51448;51.660;5.824;2022-07-19T14:09:17;10.95;;;2.20;;
60502;SDS011;51448;51.660;5.824;2022-07-19T14:11:45;14.07;;;2.50;;
60502;SDS011;51448;51.660;5.824;2022-07-19T14:14:13;9.90;;;2.13;;
60502;SDS011;51448;51.660;5.824;2022-07-19T14:16:40;10.85;;;2.60;;
60502;SDS011;51448;51.660;5.824;2022-07-19T14:19:08;11.70;;;1.95;;
60502;SDS011;51448;51.660;5.824;2022-07-19T14:21:36;9.50;;;2.30;;
60502;SDS011;51448;51.660;5.824;2022-07-19T14:24:03;8.48;;;2.45;;
60502;SDS011;51448;51.660;5.824;2022-07-19T14:26:31;9.38;;;2.25;;
60502;SDS011;51448;51.660;5.824;2022-07-19T14:28:58;6.30;;;2.33;;
60502;SDS011;51448;51.660;5.824;2022-07-19T14:31:26;8.05;;;2.17;;
60502;SDS011;51448;51.660;5.824;2022-07-19T14:33:53;5.70;;;2.10;;
60502;SDS011;51448;51.660;5.824;2022-07-19T14:36:41;6.63;;;2.40;;
60502;SDS011;51448;51.660;5.824;2022-07-19T14:39:09;7.20;;;2.20;;
60502;SDS011;51448;51.660;5.824;2022-07-19T14:41:37;11.65;;;2.47;;
60502;SDS011;51448;51.660;5.824;2022-07-19T14:44:06;6.03;;;2.00;;
60502;SDS011;51448;51.660;5.824;2022-07-19T14:46:33;6.50;;;2.28;;
60502;SDS011;51448;51.660;5.824;2022-07-19T14:49:01;9.73;;;2.30;;
60502;SDS011;51448;51.660;5.824;2022-07-19T14:51:29;8.20;;;2.22;;
60502;SDS011;51448;51.660;5.824;2022-07-19T14:53:57;9.32;;;2.15;;
60502;SDS011;51448;51.660;5.824;2022-07-19T14:56:26;8.48;;;2.40;;
60502;SDS011;51448;51.660;5.824;2022-07-19T14:58:54;9.50;;;2.13;;
60502;SDS011;51448;51.660;5.824;2022-07-19T15:01:22;7.05;;;2.53;;
60502;SDS011;51448;51.660;5.824;2022-07-19T15:03:49;9.60;;;2.30;;
60502;SDS011;51448;51.660;5.824;2022-07-19T15:06:17;7.82;;;2.30;;
60502;SDS011;51448;51.660;5.824;2022-07-19T15:08:44;6.97;;;2.10;;
60502;SDS011;51448;51.660;5.824;2022-07-19T15:11:12;10.63;;;2.28;;
60502;SDS011;51448;51.660;5.824;2022-07-19T15:13:41;8.40;;;2.50;;
60502;SDS011;51448;51.660;5.824;2022-07-19T15:16:09;8.43;;;1.83;;
60502;SDS011;51448;51.660;5.824;2022-07-19T15:18:37;7.50;;;2.22;;
60502;SDS011;51448;51.660;5.824;2022-07-19T15:21:04;9.00;;;2.08;;
60502;SDS011;51448;51.660;5.824;2022-07-19T15:23:33;7.75;;;2.03;;
60502;SDS011;51448;51.660;5.824;2022-07-19T15:26:01;6.80;;;1.90;;
60502;SDS011;51448;51.660;5.824;2022-07-19T15:28:29;5.82;;;2.30;;
60502;SDS011;51448;51.660;5.824;2022-07-19T15:30:56;8.13;;;2.38;;
60502;SDS011;51448;51.660;5.824;2022-07-19T15:33:24;9.30;;;2.28;;
60502;SDS011;51448;51.660;5.824;2022-07-19T15:35:51;5.47;;;1.98;;
60502;SDS011;51448;51.660;5.824;2022-07-19T15:38:19;8.15;;;2.20;;
60502;SDS011;51448;51.660;5.824;2022-07-19T15:40:46;8.10;;;2.20;;
60502;SDS011;51448;51.660;5.824;2022-07-19T15:43:15;9.05;;;2.20;;
60502;SDS011;51448;51.660;5.824;2022-07-19T15:45:44;6.38;;;2.15;;
60502;SDS011;51448;51.660;5.824;2022-07-19T15:48:12;8.23;;;2.10;;
60502;SDS011;51448;51.660;5.824;2022-07-19T15:50:39;5.10;;;2.00;;
60502;SDS011;51448;51.660;5.824;2022-07-19T15:53:07;9.90;;;2.45;;
60502;SDS011;51448;51.660;5.824;2022-07-19T15:55:35;6.30;;;1.98;;
60502;SDS011;51448;51.660;5.824;2022-07-19T15:58:03;7.35;;;2.67;;
60502;SDS011;51448;51.660;5.824;2022-07-19T16:00:31;7.63;;;2.20;;
60502;SDS011;51448;51.660;5.824;2022-07-19T16:02:59;6.05;;;1.92;;